Butterfly — C6UP2 — position and weather

sailwx.info

Track history (hours):
 
Tides and Currents Weather Stations Pressure Air Temp Water Temp Dewpoint Dewpoint Depression Visibility Wind Speed Wind Dir Waves Ship Positions

Butterfly

Last reported at 2016-Nov-29 22:33 UTC. Time now 2016-Dec-05 10:29 UTC.
Position N 36°47' W 008°03'.

Length 182 m; draft 7.3 m.

Type: Ship. MMSI: 311985000.

Date/timePositionNaut miles runAvg speedWind from/ knotsBaromVisibWave heightAir tempDewpointWater temp
2016-Nov-29 22:33N 36°47' W 008°03'1211.6
2016-Nov-29 21:30N 36°43' W 008°18'82 8.9
2016-Nov-29 12:16N 37°32' W 009°41'913.0
2016-Nov-29 11:33N 37°41' W 009°43'1612.8
2016-Nov-29 10:19N 37°57' W 009°46'1013.2
2016-Nov-29 09:33N 38°07' W 009°48'4 4.2
2016-Nov-29 08:33N 38°03' W 009°48'1412.8
2016-Nov-29 07:26N 37°48' W 009°46'54711.7
2016-Nov-27 08:31N 29°04' W 012°54'1212.4
2016-Nov-27 07:33N 28°54' W 013°01'1312.4
2016-Nov-27 06:33N 28°44' W 013°09'1312.4
2016-Nov-27 05:31N 28°33' W 013°17'1312.8
2016-Nov-27 04:32N 28°22' W 013°24'  
2016-Nov-23 21:08N 13°18' W 018°00'  
Track history (hours):
 
Tides and Currents Weather Stations Pressure Air Temp Water Temp Dewpoint Dewpoint Depression Visibility Wind Speed Wind Dir Waves Ship Positions

Butterfly

Last reported at 2016-Nov-29 22:33 UTC. Time now 2016-Dec-05 10:29 UTC.
Position N 36°47' W 008°03'.

Length 182 m; draft 7.3 m.

Type: Ship. MMSI: 311985000.

Date/timePositionNaut miles runAvg speedWind from/ knotsBaromVisibWave heightAir tempDewpointWater temp
2016-Nov-29 22:33N 36°47' W 008°03'1211.6
2016-Nov-29 21:30N 36°43' W 008°18'82 8.9
2016-Nov-29 12:16N 37°32' W 009°41'913.0
2016-Nov-29 11:33N 37°41' W 009°43'1612.8
2016-Nov-29 10:19N 37°57' W 009°46'1013.2
2016-Nov-29 09:33N 38°07' W 009°48'4 4.2
2016-Nov-29 08:33N 38°03' W 009°48'1412.8
2016-Nov-29 07:26N 37°48' W 009°46'54711.7
2016-Nov-27 08:31N 29°04' W 012°54'1212.4
2016-Nov-27 07:33N 28°54' W 013°01'1312.4
2016-Nov-27 06:33N 28°44' W 013°09'1312.4
2016-Nov-27 05:31N 28°33' W 013°17'1312.8
2016-Nov-27 04:32N 28°22' W 013°24'  
2016-Nov-23 21:08N 13°18' W 018°00'  

Dump ship's entire track history